Time;durP1;ratioP1;P1;durP2;ratioP2;P2;SDS_P1;SDS_P2;PMS_P1;PMS_P2;Temp;Humidity;BMP_temperature;BMP_pressure;BME280_temperature;BME280_humidity;BME280_pressure;Samples;Min_cycle;Max_cycle;Signal;HPM_P1;HPM_P2
2022/05/28 04:02:38;;;;;;;10.33;2.30;;;11.90;99.90;;;;;;4973507;28;20486;-64
2022/05/28 04:05:05;;;;;;;5.00;2.33;;;11.80;99.90;;;;;;4975244;28;20505;-64
2022/05/28 04:07:32;;;;;;;6.33;2.70;;;11.80;99.90;;;;;;4975040;28;20475;-64
2022/05/28 04:09:59;;;;;;;4.70;2.20;;;11.80;99.90;;;;;;4975120;28;20462;-64
2022/05/28 04:12:25;;;;;;;7.13;2.90;;;11.80;99.90;;;;;;4975194;28;20478;-64
2022/05/28 04:14:52;;;;;;;7.20;2.03;;;11.80;99.90;;;;;;4975078;28;20454;-64
2022/05/28 04:17:19;;;;;;;9.20;2.77;;;11.80;99.90;;;;;;4974753;28;20457;-64
2022/05/28 04:19:47;;;;;;;7.03;2.43;;;11.80;99.90;;;;;;4975153;28;20463;-64
2022/05/28 04:22:14;;;;;;;6.17;2.33;;;11.80;99.90;;;;;;4974513;28;21004;-64
2022/05/28 04:24:40;;;;;;;7.70;2.70;;;11.80;99.90;;;;;;4974965;28;20513;-64
2022/05/28 04:27:07;;;;;;;4.00;1.80;;;11.80;99.90;;;;;;4975019;28;21059;-64
2022/05/28 04:29:34;;;;;;;6.27;2.57;;;11.80;99.90;;;;;;4974922;28;20454;-65
2022/05/28 04:32:01;;;;;;;9.00;2.60;;;11.90;99.90;;;;;;4974948;28;20475;-64
2022/05/28 04:34:28;;;;;;;5.13;1.90;;;11.90;99.90;;;;;;4974914;28;20463;-64
2022/05/28 04:36:56;;;;;;;7.30;2.80;;;11.90;99.90;;;;;;4974938;28;20455;-64
2022/05/28 04:39:22;;;;;;;10.90;2.43;;;11.90;99.90;;;;;;4974519;28;20950;-64
2022/05/28 04:41:49;;;;;;;6.50;2.93;;;11.90;99.90;;;;;;4975109;28;20516;-63
2022/05/28 04:44:16;;;;;;;5.83;2.40;;;11.90;99.90;;;;;;4974798;28;20458;-64
2022/05/28 04:46:42;;;;;;;4.07;2.00;;;12.00;99.90;;;;;;4974781;28;20459;-63
2022/05/28 04:49:09;;;;;;;6.60;2.37;;;12.00;99.90;;;;;;4974386;28;20940;-63
2022/05/28 04:51:36;;;;;;;9.33;2.70;;;12.00;99.90;;;;;;4974894;28;20533;-63
2022/05/28 04:54:04;;;;;;;7.20;2.23;;;12.00;99.90;;;;;;4974707;28;20865;-63
2022/05/28 04:56:32;;;;;;;11.87;2.20;;;12.10;99.90;;;;;;4974644;28;20934;-63
2022/05/28 04:58:59;;;;;;;8.17;2.00;;;12.20;99.90;;;;;;4974779;28;20450;-63
2022/05/28 05:01:26;;;;;;;5.13;2.90;;;12.20;99.90;;;;;;4974371;28;20552;-64
2022/05/28 05:03:53;;;;;;;9.13;2.70;;;12.20;99.90;;;;;;4974801;28;20462;-64
2022/05/28 05:06:20;;;;;;;8.33;2.60;;;12.30;99.90;;;;;;4974751;28;20455;-63
2022/05/28 05:08:46;;;;;;;8.60;3.50;;;12.40;99.90;;;;;;4974421;28;20569;-63
2022/05/28 05:11:16;;;;;;;8.23;2.30;;;12.50;99.90;;;;;;4974554;28;20533;-63
2022/05/28 05:13:42;;;;;;;8.67;2.90;;;12.60;99.90;;;;;;4976463;28;20462;-63
2022/05/28 05:16:10;;;;;;;9.93;3.53;;;12.70;99.90;;;;;;4978034;28;20486;-64
2022/05/28 05:18:37;;;;;;;5.63;2.47;;;12.90;99.90;;;;;;4978097;28;20454;-63
2022/05/28 05:21:04;;;;;;;8.47;1.97;;;13.00;99.90;;;;;;4977941;28;20482;-64
2022/05/28 05:23:31;;;;;;;10.80;2.80;;;13.20;99.90;;;;;;4977992;28;20513;-64
2022/05/28 05:25:57;;;;;;;8.97;2.93;;;13.30;99.90;;;;;;4977973;28;20459;-64
2022/05/28 05:28:25;;;;;;;6.37;3.03;;;13.50;99.90;;;;;;4977889;28;20481;-64
2022/05/28 05:30:52;;;;;;;10.13;2.60;;;13.60;99.90;;;;;;4977858;28;20478;-64
2022/05/28 05:33:19;;;;;;;7.93;3.03;;;13.70;99.90;;;;;;4977740;28;20458;-64
2022/05/28 05:35:45;;;;;;;11.97;2.87;;;13.80;99.90;;;;;;4977884;28;20461;-64
2022/05/28 05:38:12;;;;;;;11.37;2.10;;;14.00;99.90;;;;;;4977618;28;20459;-64
2022/05/28 05:40:39;;;;;;;10.80;3.03;;;14.10;99.90;;;;;;4977605;28;20845;-64
2022/05/28 05:43:07;;;;;;;8.67;2.83;;;14.10;99.90;;;;;;4977633;28;20454;-63
2022/05/28 05:45:35;;;;;;;7.50;2.63;;;14.20;99.90;;;;;;4977436;28;20459;-63
2022/05/28 05:48:02;;;;;;;10.03;2.80;;;14.30;99.90;;;;;;4977449;28;21040;-63
2022/05/28 05:50:29;;;;;;;7.93;3.03;;;14.40;99.90;;;;;;4977410;28;20462;-63
2022/05/28 05:52:55;;;;;;;5.53;2.10;;;14.40;99.90;;;;;;4977657;28;20458;-63
2022/05/28 05:55:22;;;;;;;5.73;2.10;;;14.40;99.90;;;;;;4977088;28;20960;-63
2022/05/28 05:57:49;;;;;;;10.60;2.50;;;14.40;99.90;;;;;;4977382;28;20459;-63
2022/05/28 06:00:17;;;;;;;4.17;2.30;;;14.30;99.90;;;;;;4977140;28;20454;-63
2022/05/28 06:02:45;;;;;;;7.43;2.23;;;14.40;99.90;;;;;;4977386;28;20451;-63
2022/05/28 06:05:12;;;;;;;10.70;2.37;;;14.40;99.90;;;;;;4976889;28;20953;-63
2022/05/28 06:07:38;;;;;;;7.23;2.53;;;14.50;99.90;;;;;;4977112;28;20459;-64
2022/05/28 06:10:08;;;;;;;6.53;2.37;;;14.50;99.90;;;;;;4977171;28;20455;-64
2022/05/28 06:12:35;;;;;;;8.00;2.33;;;14.40;99.90;;;;;;4977043;28;20533;-64
2022/05/28 06:15:02;;;;;;;4.37;2.37;;;14.40;99.90;;;;;;4978100;28;20934;-64
2022/05/28 06:17:28;;;;;;;3.90;2.10;;;14.50;99.90;;;;;;4987677;28;20454;-64
2022/05/28 06:19:57;;;;;;;6.87;2.50;;;14.50;99.90;;;;;;4978986;28;20477;-64
2022/05/28 06:22:23;;;;;;;6.00;1.90;;;14.60;99.90;;;;;;4976595;28;20475;-64
2022/05/28 06:24:50;;;;;;;4.47;1.77;;;14.80;99.90;;;;;;4976506;28;20513;-64
2022/05/28 06:27:17;;;;;;;4.43;1.53;;;14.80;99.90;;;;;;4976739;28;20533;-64
2022/05/28 06:29:43;;;;;;;3.83;2.10;;;14.90;99.90;;;;;;4976765;28;20553;-64
2022/05/28 06:32:11;;;;;;;5.87;1.97;;;15.00;99.90;;;;;;4976637;28;20482;-64
2022/05/28 06:34:37;;;;;;;3.53;1.80;;;15.00;99.90;;;;;;4976309;28;20465;-64
2022/05/28 06:37:09;;;;;;;3.17;1.60;;;15.10;99.90;;;;;;4976431;28;20461;-64
2022/05/28 06:39:36;;;;;;;6.80;2.20;;;15.30;99.90;;;;;;4976553;28;20444;-64
2022/05/28 06:42:04;;;;;;;6.30;3.00;;;15.40;99.90;;;;;;4976890;28;20481;-64
2022/05/28 06:44:31;;;;;;;10.47;2.23;;;15.50;99.90;;;;;;4976403;28;20458;-64
2022/05/28 06:46:58;;;;;;;7.43;2.30;;;15.60;99.90;;;;;;4976438;28;20459;-64
2022/05/28 06:49:24;;;;;;;3.27;1.90;;;15.90;99.90;;;;;;4976254;28;20874;-63
2022/05/28 06:51:53;;;;;;;3.20;1.73;;;16.30;99.90;;;;;;4975865;28;20481;-64
2022/05/28 06:54:21;;;;;;;6.70;2.60;;;16.90;99.90;;;;;;4976177;28;20455;-63
2022/05/28 06:56:47;;;;;;;5.60;2.03;;;17.50;99.90;;;;;;4976062;28;20450;-63
2022/05/28 06:59:14;;;;;;;4.07;2.23;;;17.80;96.90;;;;;;4976301;28;20462;-63
2022/05/28 07:01:41;;;;;;;5.47;1.80;;;18.40;96.40;;;;;;4975832;28;20578;-64
2022/05/28 07:04:07;;;;;;;2.43;1.80;;;18.90;95.50;;;;;;4976139;28;20482;-63
2022/05/28 07:06:34;;;;;;;5.07;2.37;;;19.40;93.30;;;;;;4975753;28;20476;-64
2022/05/28 07:09:01;;;;;;;3.70;1.83;;;19.90;91.60;;;;;;4976774;28;20505;-64
2022/05/28 07:11:29;;;;;;;8.63;2.00;;;19.90;90.90;;;;;;4977389;28;20478;-64
2022/05/28 07:13:56;;;;;;;6.00;1.93;;;20.40;91.00;;;;;;4976495;28;20553;-63
2022/05/28 07:16:22;;;;;;;3.53;1.50;;;20.60;86.20;;;;;;4975863;28;20462;-64
2022/05/28 07:18:49;;;;;;;5.03;1.80;;;20.70;83.00;;;;;;4975832;28;20438;-63
2022/05/28 07:21:16;;;;;;;4.70;2.00;;;20.60;83.10;;;;;;4975783;28;20815;-64
2022/05/28 07:23:42;;;;;;;3.60;1.70;;;20.50;82.70;;;;;;4975784;28;20815;-63
2022/05/28 07:26:11;;;;;;;4.80;1.80;;;20.80;83.90;;;;;;4975724;28;20450;-63
2022/05/28 07:28:41;;;;;;;5.20;2.00;;;20.90;80.20;;;;;;4975643;28;20475;-64
2022/05/28 07:31:10;;;;;;;4.43;1.87;;;21.00;78.50;;;;;;4975636;28;20482;-64
2022/05/28 07:33:38;;;;;;;7.00;2.03;;;21.40;80.60;;;;;;4975819;28;20461;-65
2022/05/28 07:36:07;;;;;;;7.67;2.03;;;21.70;76.80;;;;;;4975016;28;20459;-63
2022/05/28 07:38:35;;;;;;;2.47;1.50;;;21.40;77.30;;;;;;4975472;28;20454;-64
2022/05/28 07:41:04;;;;;;;4.47;2.00;;;21.90;73.50;;;;;;4975940;28;20478;-66
2022/05/28 07:43:30;;;;;;;5.00;1.90;;;22.10;77.10;;;;;;4975730;28;20459;-63
2022/05/28 07:45:59;;;;;;;3.80;1.57;;;22.40;74.00;;;;;;4975766;28;20505;-63
2022/05/28 07:48:25;;;;;;;4.00;2.13;;;22.50;70.10;;;;;;4976354;28;20481;-64
2022/05/28 07:50:52;;;;;;;4.47;1.90;;;22.80;74.30;;;;;;4976080;28;20474;-64
2022/05/28 07:53:19;;;;;;;5.07;1.70;;;23.00;68.80;;;;;;4975956;28;20461;-64
2022/05/28 07:55:46;;;;;;;2.77;1.93;;;23.00;67.30;;;;;;4975572;28;20470;-63
2022/05/28 07:58:15;;;;;;;4.23;1.60;;;23.30;68.30;;;;;;4975369;28;20980;-64
2022/05/28 08:00:44;;;;;;;4.33;1.87;;;23.30;67.90;;;;;;4975627;28;20993;-64
2022/05/28 08:03:13;;;;;;;5.03;1.70;;;23.50;68.50;;;;;;4975812;28;20439;-64
2022/05/28 08:05:42;;;;;;;6.73;2.40;;;23.90;68.10;;;;;;4974868;28;20462;-64
2022/05/28 08:08:09;;;;;;;3.20;1.50;;;23.90;63.70;;;;;;4975109;28;20463;-64
2022/05/28 08:10:37;;;;;;;6.43;1.80;;;23.60;68.80;;;;;;4975096;28;20475;-64
2022/05/28 08:13:05;;;;;;;7.00;2.13;;;23.60;65.40;;;;;;4975601;28;20558;-65
2022/05/28 08:15:33;;;;;;;5.33;2.20;;;23.90;68.60;;;;;;4975286;28;20463;-64
2022/05/28 08:18:00;;;;;;;5.40;1.83;;;24.10;63.40;;;;;;4975008;28;20860;-63
2022/05/28 08:23:11;;;;;;;5.80;1.80;;;23.80;64.40;;;;;;4974570;28;20453;-64
2022/05/28 08:25:39;;;;;;;5.40;1.97;;;23.50;64.00;;;;;;4974917;28;20454;-63
2022/05/28 08:28:07;;;;;;;2.30;1.30;;;23.00;64.20;;;;;;4975393;28;20541;-64
2022/05/28 08:30:34;;;;;;;3.50;1.80;;;22.30;65.40;;;;;;4975379;28;20474;-63
2022/05/28 08:33:00;;;;;;;6.17;2.20;;;21.50;67.40;;;;;;4975106;28;20458;-63
2022/05/28 08:35:29;;;;;;;4.67;1.70;;;20.90;68.90;;;;;;4975106;28;20514;-63
2022/05/28 08:37:55;;;;;;;3.83;2.10;;;20.70;73.10;;;;;;4974994;28;20481;-64
2022/05/28 08:40:23;;;;;;;4.27;1.73;;;20.40;73.20;;;;;;4974761;28;20461;-64
2022/05/28 08:42:50;;;;;;;5.20;1.80;;;20.50;72.30;;;;;;4974434;28;20537;-64
2022/05/28 08:45:18;;;;;;;6.17;2.00;;;20.80;72.10;;;;;;4974959;28;20461;-63
2022/05/28 08:47:48;;;;;;;8.10;1.80;;;21.10;72.20;;;;;;4975445;28;20458;-64
2022/05/28 08:50:16;;;;;;;3.57;1.80;;;20.90;69.90;;;;;;4978325;28;20911;-64
2022/05/28 08:52:49;;;;;;;4.33;2.20;;;21.10;72.10;;;;;;4978327;28;20830;-64
2022/05/28 08:55:19;;;;;;;3.30;1.53;;;21.30;69.30;;;;;;4978555;28;20438;-64
2022/05/28 08:57:57;;;;;;;3.97;1.90;;;21.70;69.50;;;;;;4978411;28;20454;-64
2022/05/28 09:00:30;;;;;;;4.03;1.83;;;22.30;67.20;;;;;;4977850;28;20435;-64
2022/05/28 09:03:03;;;;;;;4.97;1.93;;;22.90;65.30;;;;;;4978391;28;20805;-64
2022/05/28 09:05:34;;;;;;;3.83;1.67;;;23.30;64.00;;;;;;4978351;28;20442;-64
2022/05/28 09:08:06;;;;;;;5.03;1.90;;;23.40;63.50;;;;;;4978078;28;20805;-64
2022/05/28 09:10:38;;;;;;;3.23;1.60;;;23.30;63.50;;;;;;4978300;28;20486;-64
2022/05/28 09:13:11;;;;;;;3.97;1.37;;;22.90;62.70;;;;;;4978506;28;20442;-65
2022/05/28 09:15:40;;;;;;;3.07;1.50;;;23.10;64.90;;;;;;4978411;28;20494;-65
2022/05/28 09:18:09;;;;;;;3.80;1.80;;;23.00;65.40;;;;;;4978351;28;20466;-65
2022/05/28 09:20:40;;;;;;;4.53;1.73;;;23.20;64.70;;;;;;4977665;28;20530;-65
2022/05/28 09:23:08;;;;;;;5.73;2.10;;;23.20;64.50;;;;;;4978145;28;20449;-65
2022/05/28 09:25:41;;;;;;;7.30;2.53;;;22.80;62.70;;;;;;4978025;28;20513;-65
2022/05/28 09:28:17;;;;;;;2.20;1.40;;;22.00;64.40;;;;;;4977972;28;20497;-65
2022/05/28 09:30:53;;;;;;;4.20;1.60;;;21.30;66.80;;;;;;4978373;28;20495;-64
2022/05/28 09:33:36;;;;;;;12.47;4.37;;;21.00;67.80;;;;;;4977846;28;20438;-63
2022/05/28 09:36:09;;;;;;;9.07;1.57;;;20.70;69.00;;;;;;4978835;28;20843;-64
2022/05/28 09:38:51;;;;;;;3.20;1.70;;;20.50;68.60;;;;;;4987320;28;20442;-64
2022/05/28 09:41:35;;;;;;;3.17;1.60;;;20.50;72.40;;;;;;4981079;28;20486;-63
2022/05/28 09:44:15;;;;;;;4.43;1.70;;;21.20;70.90;;;;;;4977815;28;20443;-64
2022/05/28 09:46:44;;;;;;;2.53;1.20;;;22.30;68.10;;;;;;4977719;28;20443;-65
2022/05/28 09:49:13;;;;;;;5.17;1.53;;;23.20;65.60;;;;;;4977493;28;20482;-65
2022/05/28 09:51:50;;;;;;;2.40;1.40;;;23.60;65.70;;;;;;4977613;28;20481;-65
2022/05/28 09:54:22;;;;;;;6.23;1.70;;;23.60;62.70;;;;;;4977602;28;20442;-64
2022/05/28 09:56:55;;;;;;;2.30;1.30;;;22.80;62.80;;;;;;4977589;28;20865;-64
2022/05/28 09:59:34;;;;;;;5.87;1.73;;;22.50;63.60;;;;;;4976735;28;20442;-64
2022/05/28 10:02:07;;;;;;;3.60;1.60;;;22.00;64.50;;;;;;4985821;28;20486;-64
2022/05/28 10:04:43;;;;;;;3.63;1.50;;;21.60;65.30;;;;;;4987246;28;20510;-63
2022/05/28 10:07:10;;;;;;;5.47;1.73;;;21.20;69.90;;;;;;4977511;28;20485;-63
2022/05/28 10:09:49;;;;;;;2.83;1.80;;;20.90;67.60;;;;;;4977188;28;20489;-64
2022/05/28 10:12:22;;;;;;;5.13;1.90;;;20.70;68.10;;;;;;4977061;28;20481;-64
2022/05/28 10:15:00;;;;;;;5.03;1.73;;;20.30;68.40;;;;;;4977165;28;20474;-64
2022/05/28 10:17:27;;;;;;;4.50;1.77;;;20.10;70.40;;;;;;4977155;28;20571;-64
2022/05/28 10:19:56;;;;;;;3.13;2.00;;;19.90;72.20;;;;;;4976866;28;20454;-64
2022/05/28 10:22:26;;;;;;;7.17;1.80;;;19.80;71.10;;;;;;4977034;28;20481;-64
2022/05/28 10:24:57;;;;;;;5.97;1.70;;;19.80;73.20;;;;;;4976668;28;20458;-64
2022/05/28 10:27:33;;;;;;;3.80;1.63;;;19.90;72.30;;;;;;4976678;28;20915;-64
2022/05/28 10:30:03;;;;;;;4.00;1.83;;;20.00;68.40;;;;;;4976490;28;20509;-64
2022/05/28 10:32:34;;;;;;;2.30;1.50;;;20.20;70.90;;;;;;4976801;28;20485;-64
2022/05/28 10:35:11;;;;;;;2.77;1.53;;;20.60;71.10;;;;;;4976406;28;20925;-64
2022/05/28 10:37:38;;;;;;;5.33;1.67;;;20.90;67.50;;;;;;4976832;28;20446;-64
2022/05/28 10:40:13;;;;;;;4.23;1.60;;;21.60;68.00;;;;;;4977059;28;20451;-65
2022/05/28 10:42:40;;;;;;;3.47;1.63;;;22.20;68.80;;;;;;4976678;28;20438;-65
2022/05/28 10:45:08;;;;;;;4.70;1.60;;;22.90;64.70;;;;;;4976628;28;20463;-64
2022/05/28 10:48:06;;;;;;;6.17;2.40;;;23.20;62.40;;;;;;4976493;28;20458;-64
2022/05/28 10:50:43;;;;;;;2.80;1.40;;;23.50;59.20;;;;;;4974530;28;20486;-64
2022/05/28 10:53:19;;;;;;;4.00;1.33;;;23.60;60.10;;;;;;4976506;28;20449;-64
2022/05/28 10:56:10;;;;;;;3.23;1.40;;;23.40;59.40;;;;;;4976537;28;20445;-65
2022/05/28 10:58:48;;;;;;;3.07;1.37;;;23.20;58.20;;;;;;4973957;28;20463;-64
2022/05/28 11:01:30;;;;;;;2.30;1.47;;;22.80;59.40;;;;;;4976408;28;20478;-65
2022/05/28 11:04:24;;;;;;;3.37;1.60;;;22.50;58.80;;;;;;4977761;28;20443;-64
2022/05/28 11:07:22;;;;;;;2.60;1.23;;;21.90;59.00;;;;;;4976278;28;20442;-64
2022/05/28 11:10:01;;;;;;;5.03;1.70;;;21.50;59.30;;;;;;4975882;28;20513;-64
2022/05/28 11:12:56;;;;;;;2.17;1.10;;;21.20;59.30;;;;;;4975932;28;20509;-64
2022/05/28 11:15:36;;;;;;;4.90;1.67;;;21.40;63.20;;;;;;4976302;28;20439;-64
2022/05/28 11:18:20;;;;;;;3.27;1.67;;;21.50;62.70;;;;;;4975869;28;20918;-64
2022/05/28 11:20:54;;;;;;;4.40;2.40;;;22.20;62.30;;;;;;4975972;28;20482;-65
2022/05/28 11:23:43;;;;;;;2.90;1.70;;;22.60;61.30;;;;;;4976612;28;20772;-65
2022/05/28 11:26:20;;;;;;;3.40;1.73;;;22.80;58.60;;;;;;4975862;28;20439;-64
2022/05/28 11:29:09;;;;;;;5.90;4.10;;;23.30;60.60;;;;;;4976296;28;20443;-64
2022/05/28 11:31:41;;;;;;;4.03;2.33;;;23.70;60.00;;;;;;4975960;28;20478;-65
2022/05/28 11:34:13;;;;;;;4.53;2.47;;;23.80;61.90;;;;;;4976230;28;20478;-64
2022/05/28 11:36:45;;;;;;;4.30;1.73;;;24.00;60.30;;;;;;4975685;28;20450;-64
2022/05/28 11:39:20;;;;;;;2.73;1.57;;;23.70;57.10;;;;;;4975380;28;20442;-64
2022/05/28 11:41:53;;;;;;;3.00;1.83;;;23.40;58.20;;;;;;4975581;28;20477;-65
2022/05/28 11:44:29;;;;;;;2.63;1.63;;;23.20;57.70;;;;;;4975669;28;20450;-65
2022/05/28 11:47:00;;;;;;;3.50;1.60;;;22.90;59.20;;;;;;4975386;28;20445;-66
2022/05/28 11:52:33;;;;;;;3.00;2.00;;;22.40;59.90;;;;;;4975207;28;20470;-64
2022/05/28 11:55:05;;;;;;;5.20;1.53;;;21.90;59.10;;;;;;4975460;28;20475;-64
2022/05/28 11:57:39;;;;;;;2.63;1.23;;;21.70;60.90;;;;;;4975151;28;20961;-64
2022/05/28 12:00:11;;;;;;;4.63;1.33;;;21.40;59.20;;;;;;4975325;28;20438;-64
2022/05/28 12:02:41;;;;;;;2.33;1.30;;;21.20;61.80;;;;;;4975356;28;20446;-64
2022/05/28 12:05:16;;;;;;;2.30;1.27;;;21.40;64.10;;;;;;4974775;28;20981;-64
2022/05/28 12:07:46;;;;;;;2.40;1.53;;;21.50;61.50;;;;;;4975003;28;20513;-65
2022/05/28 12:10:28;;;;;;;4.30;1.40;;;21.70;63.50;;;;;;4974895;28;20545;-64
2022/05/28 12:12:59;;;;;;;4.13;1.50;;;22.00;62.70;;;;;;4974929;28;20439;-64
2022/05/28 12:15:30;;;;;;;5.60;1.67;;;22.20;59.60;;;;;;4975145;28;20478;-65
2022/05/28 12:18:04;;;;;;;2.50;1.50;;;22.20;59.90;;;;;;4976255;28;20443;-64
2022/05/28 12:20:33;;;;;;;3.17;1.33;;;22.20;60.60;;;;;;4975407;28;20438;-63
2022/05/28 12:23:03;;;;;;;5.77;1.50;;;22.20;62.40;;;;;;4977946;28;20461;-64
2022/05/28 12:25:36;;;;;;;2.77;1.50;;;22.50;61.10;;;;;;4979011;28;20445;-65
2022/05/28 12:28:10;;;;;;;3.00;1.47;;;22.50;61.30;;;;;;4979048;28;20459;-64
2022/05/28 12:30:52;;;;;;;2.93;1.07;;;22.70;58.40;;;;;;4978872;28;20854;-64
2022/05/28 12:33:49;;;;;;;4.33;1.50;;;22.70;61.40;;;;;;4979056;28;20447;-64
2022/05/28 12:36:22;;;;;;;3.00;1.50;;;22.70;62.60;;;;;;4979030;28;20958;-64
2022/05/28 12:38:55;;;;;;;4.80;1.50;;;22.60;61.10;;;;;;4979225;28;20439;-64
2022/05/28 12:41:25;;;;;;;7.53;1.63;;;22.60;58.30;;;;;;4978820;28;20867;-64
2022/05/28 12:43:55;;;;;;;2.57;1.63;;;22.50;58.80;;;;;;4978573;28;20850;-64
2022/05/28 12:46:41;;;;;;;3.50;1.57;;;22.30;63.70;;;;;;4978946;28;20454;-64
2022/05/28 12:49:11;;;;;;;3.00;1.53;;;22.50;62.30;;;;;;4978945;28;20438;-64
2022/05/28 12:52:10;;;;;;;2.83;1.63;;;22.90;61.60;;;;;;4978642;28;21012;-64
2022/05/28 12:54:39;;;;;;;4.73;1.27;;;23.40;61.60;;;;;;4963291;28;20462;-64
2022/05/28 12:57:11;;;;;;;3.77;1.73;;;23.70;64.10;;;;;;4978726;28;20796;-65
2022/05/28 12:59:40;;;;;;;5.07;1.50;;;23.90;57.70;;;;;;4978506;28;20443;-65
2022/05/28 13:02:25;;;;;;;2.57;1.20;;;23.70;57.20;;;;;;4977991;28;20482;-64
2022/05/28 13:04:59;;;;;;;2.57;1.40;;;23.60;60.80;;;;;;4978394;28;20449;-65
2022/05/28 13:07:29;;;;;;;3.60;1.87;;;23.40;58.20;;;;;;4978254;28;20443;-64
2022/05/28 13:10:04;;;;;;;2.00;1.33;;;23.00;58.50;;;;;;4978172;28;20463;-65
2022/05/28 13:12:38;;;;;;;3.43;1.37;;;22.90;58.90;;;;;;4978041;28;20823;-64
2022/05/28 13:15:33;;;;;;;3.07;1.40;;;22.40;58.40;;;;;;4979032;28;20852;-65
2022/05/28 13:18:29;;;;;;;2.80;1.37;;;22.20;59.10;;;;;;4989126;28;20927;-64
2022/05/28 13:21:19;;;;;;;2.60;1.27;;;22.20;58.90;;;;;;4979076;28;20473;-64
2022/05/28 13:24:05;;;;;;;2.73;1.30;;;22.10;57.70;;;;;;4965273;28;20473;-64
2022/05/28 13:27:03;;;;;;;1.97;1.20;;;21.80;59.50;;;;;;4977650;28;20906;-64
2022/05/28 13:29:54;;;;;;;4.47;1.57;;;21.50;60.30;;;;;;4945451;28;20468;-65
2022/05/28 13:32:25;;;;;;;1.83;1.30;;;21.20;59.10;;;;;;4977387;28;20528;-63
2022/05/28 13:35:00;;;;;;;3.10;1.20;;;20.90;60.60;;;;;;4976829;28;20443;-65
2022/05/28 13:37:27;;;;;;;3.17;1.20;;;20.60;60.20;;;;;;4977691;28;20856;-64
2022/05/28 13:39:56;;;;;;;4.10;1.43;;;20.50;61.10;;;;;;4977359;28;20804;-64
2022/05/28 13:42:25;;;;;;;6.33;1.30;;;20.20;60.90;;;;;;4977653;28;20471;-64
2022/05/28 13:44:53;;;;;;;4.57;1.53;;;20.00;62.40;;;;;;4977462;28;20957;-65
2022/05/28 13:47:27;;;;;;;2.50;1.10;;;19.90;63.20;;;;;;4977180;28;20462;-64
2022/05/28 13:49:54;;;;;;;4.20;1.47;;;19.70;62.60;;;;;;4977446;28;20435;-65
2022/05/28 13:52:22;;;;;;;5.40;1.30;;;19.70;62.60;;;;;;4977406;28;20986;-64
2022/05/28 13:54:58;;;;;;;2.07;1.50;;;19.60;62.50;;;;;;4977353;28;20541;-64
2022/05/28 13:57:36;;;;;;;3.43;1.17;;;19.50;63.40;;;;;;4977903;28;20443;-65
2022/05/28 14:00:07;;;;;;;2.73;1.33;;;19.50;65.30;;;;;;4977453;28;20445;-64
2022/05/28 14:02:37;;;;;;;3.13;1.73;;;19.90;67.10;;;;;;4976976;28;20557;-64
2022/05/28 14:05:05;;;;;;;2.93;1.30;;;20.20;66.30;;;;;;4977511;28;20594;-64
2022/05/28 14:07:41;;;;;;;3.33;1.00;;;20.70;64.70;;;;;;4977159;28;20455;-65
2022/05/28 14:10:15;;;;;;;1.30;1.20;;;21.20;65.70;;;;;;4977565;28;20449;-64
2022/05/28 14:12:43;;;;;;;8.50;2.10;;;21.40;60.90;;;;;;4977268;28;20447;-64
2022/05/28 14:15:17;;;;;;;2.07;1.43;;;21.30;59.50;;;;;;4977366;28;20463;-64
2022/05/28 14:17:44;;;;;;;2.80;1.30;;;21.20;60.80;;;;;;4977280;28;20450;-64
2022/05/28 14:20:18;;;;;;;3.23;1.30;;;20.90;61.00;;;;;;4977006;28;20504;-64
2022/05/28 14:22:48;;;;;;;2.60;1.00;;;20.70;60.60;;;;;;4976895;28;20443;-64
2022/05/28 14:25:23;;;;;;;3.17;1.40;;;20.40;59.80;;;;;;4976674;28;20967;-64
2022/05/28 14:27:51;;;;;;;2.00;0.90;;;20.30;61.00;;;;;;4976995;28;20442;-64
2022/05/28 14:30:18;;;;;;;2.40;1.33;;;20.10;62.50;;;;;;4976233;28;21020;-64
2022/05/28 14:32:47;;;;;;;2.80;1.30;;;19.80;62.30;;;;;;4976753;28;20489;-64
2022/05/28 14:35:21;;;;;;;4.13;1.53;;;19.80;63.50;;;;;;4976736;28;20455;-65
2022/05/28 14:37:59;;;;;;;3.23;1.33;;;20.10;66.10;;;;;;4976215;28;20913;-65
2022/05/28 14:40:27;;;;;;;1.47;1.30;;;20.40;63.20;;;;;;4976176;28;20855;-65
2022/05/28 14:42:58;;;;;;;3.90;1.47;;;20.70;62.90;;;;;;4976743;28;20531;-65
2022/05/28 14:45:27;;;;;;;2.50;1.20;;;20.90;62.00;;;;;;4976695;28;20844;-64
2022/05/28 14:47:55;;;;;;;3.37;1.30;;;21.00;59.90;;;;;;4976279;28;20558;-64
2022/05/28 14:50:28;;;;;;;4.03;1.10;;;20.90;59.90;;;;;;4976333;28;20455;-64
2022/05/28 14:52:57;;;;;;;5.07;2.00;;;20.70;60.30;;;;;;4976145;28;20911;-64
2022/05/28 14:55:31;;;;;;;1.63;1.40;;;20.50;62.50;;;;;;4976432;28;20462;-64
2022/05/28 14:58:06;;;;;;;1.67;1.23;;;20.50;61.80;;;;;;4976223;28;20478;-64
2022/05/28 15:00:35;;;;;;;3.97;2.93;;;20.30;59.50;;;;;;4975722;28;20466;-64
2022/05/28 15:03:10;;;;;;;2.50;1.10;;;20.20;61.10;;;;;;4976259;28;20439;-64
2022/05/28 15:05:36;;;;;;;2.77;1.70;;;20.10;62.30;;;;;;4976137;28;20459;-64
2022/05/28 15:08:06;;;;;;;2.20;1.20;;;19.90;62.00;;;;;;4976166;28;20502;-64
2022/05/28 15:10:41;;;;;;;2.27;1.33;;;19.90;62.70;;;;;;4976035;28;20491;-65
2022/05/28 15:13:26;;;;;;;1.63;1.00;;;19.80;60.70;;;;;;4976153;28;20560;-64
2022/05/28 15:15:55;;;;;;;3.23;1.80;;;20.00;61.70;;;;;;4976149;28;20438;-64
2022/05/28 15:18:23;;;;;;;3.07;1.30;;;20.00;59.70;;;;;;4976924;28;20947;-65
2022/05/28 15:20:52;;;;;;;1.33;1.20;;;20.10;59.50;;;;;;4976147;28;21042;-65
2022/05/28 15:23:20;;;;;;;1.67;0.90;;;20.00;60.10;;;;;;4975586;28;20974;-64
2022/05/28 15:25:48;;;;;;;3.10;1.70;;;19.80;58.70;;;;;;4975851;28;20497;-64
2022/05/28 15:28:15;;;;;;;3.20;1.30;;;19.70;59.30;;;;;;4976085;28;20458;-63
2022/05/28 15:30:42;;;;;;;3.00;1.40;;;19.60;61.90;;;;;;4975540;28;20482;-64
2022/05/28 15:33:12;;;;;;;1.33;1.17;;;19.70;61.70;;;;;;4975392;28;20458;-64
2022/05/28 15:38:25;;;;;;;1.63;1.10;;;19.90;59.90;;;;;;4975677;28;20419;-64
2022/05/28 15:40:55;;;;;;;2.80;1.50;;;19.90;60.50;;;;;;4975468;28;20502;-64
2022/05/28 15:43:22;;;;;;;2.73;1.20;;;19.90;61.00;;;;;;4975316;28;20916;-64
2022/05/28 15:45:49;;;;;;;1.33;1.10;;;20.10;61.60;;;;;;4975943;28;20454;-64
2022/05/28 15:48:16;;;;;;;1.33;1.03;;;20.20;61.60;;;;;;4975517;28;20458;-64
2022/05/28 15:50:42;;;;;;;2.53;1.30;;;20.40;61.60;;;;;;4975626;28;20491;-64
2022/05/28 15:53:10;;;;;;;5.60;1.30;;;20.50;61.10;;;;;;4975488;28;20454;-65
2022/05/28 15:55:40;;;;;;;1.80;0.83;;;20.50;59.70;;;;;;4975360;28;20531;-64
2022/05/28 15:58:13;;;;;;;2.73;1.20;;;20.40;59.70;;;;;;4975105;28;20450;-64
2022/05/28 16:00:40;;;;;;;2.33;1.50;;;20.20;59.40;;;;;;4975308;28;20486;-64
2022/05/28 16:03:07;;;;;;;4.07;1.30;;;20.10;59.60;;;;;;4975418;28;20443;-64
2022/05/28 16:05:37;;;;;;;3.83;1.50;;;20.00;59.80;;;;;;4975457;28;20450;-64
2022/05/28 16:08:11;;;;;;;1.50;1.40;;;19.80;60.50;;;;;;4975104;28;20474;-64
2022/05/28 16:10:40;;;;;;;1.67;1.40;;;19.60;60.90;;;;;;4974809;28;20478;-64
2022/05/28 16:13:08;;;;;;;2.30;1.43;;;19.60;61.60;;;;;;4975362;28;20454;-64
2022/05/28 16:15:35;;;;;;;2.97;1.50;;;19.70;63.30;;;;;;4975438;28;20473;-64
2022/05/28 16:18:03;;;;;;;1.33;1.20;;;19.90;62.40;;;;;;4975672;28;20458;-64
2022/05/28 16:20:30;;;;;;;4.27;2.57;;;20.00;61.80;;;;;;4974793;28;20451;-64
2022/05/28 16:22:57;;;;;;;1.77;1.33;;;20.30;60.90;;;;;;4974945;28;20450;-65
2022/05/28 16:25:23;;;;;;;3.13;1.73;;;20.40;59.60;;;;;;4977330;28;20938;-64
2022/05/28 16:27:53;;;;;;;3.07;1.17;;;20.60;61.10;;;;;;4984733;28;20450;-64
2022/05/28 16:30:22;;;;;;;1.27;0.90;;;20.70;59.80;;;;;;4978338;28;20481;-64
2022/05/28 16:32:49;;;;;;;1.63;1.10;;;20.70;58.70;;;;;;4975195;28;20490;-63
2022/05/28 16:35:16;;;;;;;3.03;1.10;;;20.50;57.30;;;;;;4974861;28;20938;-64
2022/05/28 16:37:43;;;;;;;1.70;1.30;;;20.20;56.70;;;;;;4975735;28;20870;-64
2022/05/28 16:40:10;;;;;;;2.30;1.20;;;20.00;56.70;;;;;;4975066;28;20849;-64
2022/05/28 16:42:38;;;;;;;1.57;1.47;;;19.90;57.20;;;;;;4975920;28;20529;-65
2022/05/28 16:45:08;;;;;;;4.90;1.10;;;19.70;57.00;;;;;;4977134;28;20486;-65
2022/05/28 16:47:35;;;;;;;2.00;1.50;;;19.70;57.80;;;;;;4975569;28;20966;-64
2022/05/28 16:50:02;;;;;;;2.17;1.47;;;19.50;57.20;;;;;;4975660;28;20451;-64
2022/05/28 16:52:28;;;;;;;3.40;1.50;;;19.30;57.30;;;;;;4974790;28;20522;-64
2022/05/28 16:54:55;;;;;;;4.20;1.70;;;19.20;58.20;;;;;;4975066;28;20458;-65
2022/05/28 16:57:25;;;;;;;2.40;1.40;;;19.00;58.20;;;;;;4975029;28;20455;-64
2022/05/28 16:59:52;;;;;;;2.30;1.77;;;18.70;58.40;;;;;;4975089;28;20447;-65
2022/05/28 17:02:21;;;;;;;1.20;0.97;;;18.60;59.30;;;;;;4974368;28;20478;-65
2022/05/28 17:04:48;;;;;;;1.90;1.43;;;18.50;60.40;;;;;;4974768;28;20458;-64
2022/05/28 17:07:14;;;;;;;2.10;1.83;;;18.50;60.50;;;;;;4975058;28;20458;-64
2022/05/28 17:09:41;;;;;;;1.40;1.27;;;18.40;61.30;;;;;;4976409;28;20459;-64
2022/05/28 17:12:09;;;;;;;1.80;0.90;;;18.30;61.70;;;;;;4978358;28;20478;-65
2022/05/28 17:14:36;;;;;;;2.40;1.77;;;18.30;61.40;;;;;;4978343;28;20457;-64